Time;durP1;ratioP1;P1;durP2;ratioP2;P2;SDS_P1;SDS_P2;PMS_P1;PMS_P2;Temp;Humidity;BMP_temperature;BMP_pressure;BME280_temperature;BME280_humidity;BME280_pressure;Samples;Min_cycle;Max_cycle;Signal;HPM_P1;HPM_P2
2022/07/10 00:02:13;;;;;;;6.27;2.43;;;;;;;15.88;60.39;102671.03;5290054;28;20439;-77
2022/07/10 00:04:44;;;;;;;11.50;3.40;;;;;;;15.67;60.83;102667.75;5275041;28;20656;-77
2022/07/10 00:07:15;;;;;;;12.20;5.83;;;;;;;15.79;60.89;102676.78;5293060;28;20056;-77
2022/07/10 00:09:46;;;;;;;10.57;4.67;;;;;;;15.55;61.98;102675.34;5292990;28;20039;-77
2022/07/10 00:12:18;;;;;;;8.37;2.57;;;;;;;15.71;61.15;102680.69;5292238;28;20028;-78
2022/07/10 00:14:49;;;;;;;4.40;2.07;;;;;;;15.47;61.88;102667.84;5287331;28;20036;-78
2022/07/10 00:17:20;;;;;;;4.53;1.70;;;;;;;15.64;61.60;102674.03;5290453;28;20043;-78
2022/07/10 00:19:51;;;;;;;7.63;2.10;;;;;;;15.78;61.18;102675.09;5305977;28;20039;-77
2022/07/10 00:22:23;;;;;;;6.73;2.50;;;;;;;15.61;61.40;102674.19;5289803;28;20066;-77
2022/07/10 00:24:54;;;;;;;4.80;1.73;;;;;;;15.66;61.33;102671.28;5290041;28;20032;-77
2022/07/10 00:27:25;;;;;;;7.17;2.47;;;;;;;15.61;61.80;102668.91;5290321;28;20024;-77
2022/07/10 00:29:57;;;;;;;8.47;2.80;;;;;;;15.51;62.04;102680.88;5276200;28;20032;-78
2022/07/10 00:32:28;;;;;;;4.40;1.93;;;;;;;15.55;61.63;102670.06;5284760;28;20032;-77
2022/07/10 00:35:01;;;;;;;5.17;2.00;;;;;;;15.41;62.26;102681.34;5289006;28;20475;-77
2022/07/10 00:37:33;;;;;;;6.23;2.30;;;;;;;15.21;63.07;102677.94;5282743;28;20024;-77
2022/07/10 00:40:05;;;;;;;5.70;2.27;;;;;;;15.35;62.68;102679.03;5281618;28;20028;-77
2022/07/10 00:42:36;;;;;;;6.87;3.73;;;;;;;15.35;62.49;102663.19;5293591;28;20032;-77
2022/07/10 00:45:08;;;;;;;18.53;9.33;;;;;;;15.27;62.80;102662.72;5289218;28;20036;-77
2022/07/10 00:47:40;;;;;;;11.87;5.57;;;;;;;15.25;63.00;102665.44;5305401;28;20032;-77
2022/07/10 00:50:12;;;;;;;8.40;4.43;;;;;;;15.27;62.73;102653.03;5289029;28;20191;-78
2022/07/10 00:52:43;;;;;;;7.87;3.80;;;;;;;15.22;63.16;102662.97;5289960;28;20052;-78
2022/07/10 00:55:15;;;;;;;8.37;2.90;;;;;;;14.75;64.62;102660.78;5292402;28;20051;-78
2022/07/10 00:57:47;;;;;;;5.97;3.00;;;;;;;14.97;64.22;102658.91;5293354;28;20024;-77
2022/07/10 01:00:18;;;;;;;7.70;2.63;;;;;;;15.12;63.75;102649.38;5292961;28;20028;-77
2022/07/10 01:02:50;;;;;;;7.20;2.33;;;;;;;14.94;64.52;102649.34;5293195;28;20216;-77
2022/07/10 01:05:21;;;;;;;4.03;1.87;;;;;;;14.95;64.65;102653.72;5294149;28;20044;-76
2022/07/10 01:07:52;;;;;;;8.27;2.10;;;;;;;14.94;64.88;102649.34;5283338;28;20032;-77
2022/07/10 01:10:24;;;;;;;7.93;2.17;;;;;;;14.98;64.65;102642.16;5289046;28;20028;-77
2022/07/10 01:12:56;;;;;;;7.23;1.93;;;;;;;15.08;64.68;102646.03;5290674;22;20102;-77
2022/07/10 01:15:27;;;;;;;5.83;2.00;;;;;;;15.02;64.79;102635.78;5256514;28;20029;-77
2022/07/10 01:17:59;;;;;;;13.13;2.57;;;;;;;15.08;64.81;102635.47;5251120;28;20434;-77
2022/07/10 01:20:32;;;;;;;7.93;2.77;;;;;;;15.23;64.19;102633.88;5251676;28;20181;-77
2022/07/10 01:23:03;;;;;;;11.40;2.20;;;;;;;15.15;64.49;102632.53;5252211;28;20037;-77
2022/07/10 01:25:34;;;;;;;6.83;2.10;;;;;;;15.09;64.81;102625.78;5252827;28;20371;-77
2022/07/10 01:28:06;;;;;;;6.73;1.87;;;;;;;14.85;65.76;102628.72;5250055;28;20032;-77
2022/07/10 01:30:37;;;;;;;8.60;1.90;;;;;;;14.93;65.32;102621.28;5252271;28;20079;-77
2022/07/10 01:33:09;;;;;;;4.30;2.10;;;;;;;14.99;65.29;102613.03;5233962;28;20094;-77
2022/07/10 01:35:41;;;;;;;11.70;3.10;;;;;;;15.01;65.27;102620.88;5252102;28;20033;-77
2022/07/10 01:38:12;;;;;;;7.40;1.90;;;;;;;14.83;65.86;102620.91;5252034;28;20039;-77
2022/07/10 01:40:44;;;;;;;10.57;2.33;;;;;;;14.62;66.99;102613.09;5250206;28;20033;-77
2022/07/10 01:43:15;;;;;;;8.07;1.90;;;;;;;14.40;67.68;102607.97;5250671;28;20047;-77
2022/07/10 01:45:46;;;;;;;7.73;2.70;;;;;;;14.28;68.52;102612.91;5251681;28;20072;-77
2022/07/10 01:48:17;;;;;;;5.47;2.20;;;;;;;14.28;68.95;102618.19;5251453;28;20028;-78
2022/07/10 01:50:49;;;;;;;7.80;2.20;;;;;;;14.52;67.96;102623.19;5238305;28;20028;-77
2022/07/10 01:53:20;;;;;;;8.07;2.20;;;;;;;14.61;67.46;102621.03;5234042;28;20035;-78
2022/07/10 01:55:51;;;;;;;9.23;2.20;;;;;;;14.50;67.84;102609.22;5251305;28;20471;-78
2022/07/10 01:58:23;;;;;;;6.13;2.13;;;;;;;14.62;67.73;102617.50;5249597;28;20061;-78
2022/07/10 02:00:54;;;;;;;5.27;2.67;;;;;;;14.58;67.91;102616.78;5250417;28;20029;-78
2022/07/10 02:06:15;;;;;;;6.10;2.40;;;;;;;14.62;67.49;102612.22;5231168;28;20045;-77
2022/07/10 02:08:46;;;;;;;10.67;2.90;;;;;;;14.13;69.41;102598.69;5243164;28;20037;-77
2022/07/10 02:11:18;;;;;;;8.97;2.73;;;;;;;14.08;69.70;102607.72;5251262;28;20171;-77
2022/07/10 02:13:50;;;;;;;7.33;3.53;;;;;;;14.45;68.80;102623.59;5248761;28;20049;-77
2022/07/10 02:16:21;;;;;;;7.57;2.90;;;;;;;14.34;69.64;102618.81;5251704;28;20159;-77
2022/07/10 02:18:52;;;;;;;8.60;2.80;;;;;;;14.02;70.93;102617.63;5251113;28;20120;-78
2022/07/10 02:21:24;;;;;;;5.27;2.30;;;;;;;14.09;70.42;102610.28;5251354;28;20067;-78
2022/07/10 02:23:55;;;;;;;10.17;3.17;;;;;;;14.39;69.03;102614.19;5250956;28;20052;-78
2022/07/10 02:26:26;;;;;;;8.17;4.10;;;;;;;14.13;70.29;102611.88;5232630;28;20033;-76
2022/07/10 02:28:57;;;;;;;9.43;3.77;;;;;;;13.95;71.66;102612.69;5231110;28;20025;-77
2022/07/10 02:31:29;;;;;;;7.47;2.43;;;;;;;14.26;70.16;102616.56;5251589;28;20458;-77
2022/07/10 02:34:01;;;;;;;11.40;3.03;;;;;;;14.18;70.84;102614.28;5233051;28;20033;-80
2022/07/10 02:36:32;;;;;;;11.40;2.97;;;;;;;14.30;69.86;102611.97;5253063;28;20108;-78
2022/07/10 02:39:05;;;;;;;10.37;3.17;;;;;;;14.18;70.76;102606.38;5232318;28;20115;-78
2022/07/10 02:41:36;;;;;;;9.17;2.50;;;;;;;14.17;70.61;102609.09;5250572;28;20694;-77
2022/07/10 02:44:07;;;;;;;16.90;2.90;;;;;;;14.27;70.60;102608.59;5249425;28;20057;-78
2022/07/10 02:46:38;;;;;;;9.70;2.50;;;;;;;14.21;70.50;102611.50;5231394;28;20074;-79
2022/07/10 02:49:10;;;;;;;6.13;2.03;;;;;;;14.30;70.35;102617.25;5250590;28;20467;-78
2022/07/10 02:51:41;;;;;;;10.77;1.93;;;;;;;14.05;71.30;102615.78;5232869;28;20032;-78
2022/07/10 02:54:12;;;;;;;6.13;2.13;;;;;;;14.22;70.74;102602.69;5249507;28;20037;-78
2022/07/10 02:56:44;;;;;;;4.50;2.30;;;;;;;14.19;71.17;102605.44;5251244;28;20017;-78
2022/07/10 02:59:16;;;;;;;4.57;2.00;;;;;;;14.15;71.28;102607.34;5248746;28;20813;-78
2022/07/10 03:01:48;;;;;;;6.97;2.50;;;;;;;14.09;71.50;102591.84;5250221;28;20044;-78
2022/07/10 03:04:19;;;;;;;6.37;1.73;;;;;;;14.19;71.51;102610.69;5249995;28;20017;-77
2022/07/10 03:06:50;;;;;;;7.80;2.40;;;;;;;14.20;71.50;102596.63;5232308;28;20112;-77
2022/07/10 03:09:21;;;;;;;5.90;2.50;;;;;;;14.36;70.87;102609.06;5250146;28;20025;-78
2022/07/10 03:11:53;;;;;;;9.63;2.60;;;;;;;14.29;71.04;102605.88;5249730;28;20094;-78
2022/07/10 03:14:24;;;;;;;5.77;2.50;;;;;;;14.22;71.75;102607.94;5248568;28;20044;-78
2022/07/10 03:16:55;;;;;;;5.63;2.33;;;;;;;14.07;72.39;102595.50;5249977;28;20068;-78
2022/07/10 03:19:27;;;;;;;6.27;2.63;;;;;;;14.26;71.55;102606.84;5248887;28;20033;-77
2022/07/10 03:21:58;;;;;;;5.93;2.20;;;;;;;14.08;72.46;102598.06;5249625;28;20035;-78
2022/07/10 03:24:29;;;;;;;4.93;2.10;;;;;;;13.92;73.71;102603.19;5250006;28;20722;-78
2022/07/10 03:27:00;;;;;;;8.33;2.63;;;;;;;14.03;73.37;102598.25;5230538;28;20490;-78
2022/07/10 03:29:32;;;;;;;8.70;2.07;;;;;;;13.83;74.67;102599.19;5249317;28;20065;-77
2022/07/10 03:32:04;;;;;;;5.40;2.30;;;;;;;14.01;73.28;102583.47;5232131;28;20120;-78
2022/07/10 03:34:36;;;;;;;6.93;2.43;;;;;;;14.05;73.17;102597.34;5231289;28;20124;-78
2022/07/10 03:37:08;;;;;;;5.20;2.20;;;;;;;13.88;74.50;102591.06;5249603;28;20068;-77
2022/07/10 03:39:39;;;;;;;8.30;2.23;;;;;;;13.89;73.57;102567.28;5231813;28;20032;-78
2022/07/10 03:42:10;;;;;;;6.47;2.10;;;;;;;13.62;75.61;102579.94;5248964;28;20063;-78
2022/07/10 03:44:41;;;;;;;8.87;2.30;;;;;;;13.97;74.01;102579.25;5248946;28;20028;-78
2022/07/10 03:47:13;;;;;;;8.30;1.93;;;;;;;13.97;74.25;102588.00;5248843;28;20046;-78
2022/07/10 03:49:44;;;;;;;11.03;2.87;;;;;;;13.71;75.63;102579.53;5249855;28;20040;-78
2022/07/10 03:52:15;;;;;;;7.60;2.73;;;;;;;13.83;75.03;102574.63;5248770;28;20041;-78
2022/07/10 03:54:47;;;;;;;6.87;3.13;;;;;;;13.91;74.43;102585.69;5248356;28;20025;-78
2022/07/10 04:00:08;;;;;;;7.83;2.63;;;;;;;13.97;74.47;102590.66;5248310;28;20037;-77
2022/07/10 04:02:40;;;;;;;7.50;2.60;;;;;;;13.93;74.30;102588.22;5231335;28;20400;-77
2022/07/10 04:05:11;;;;;;;6.00;2.37;;;;;;;13.83;74.84;102572.84;5248651;28;20522;-78
2022/07/10 04:07:42;;;;;;;9.67;2.60;;;;;;;13.81;75.73;102584.38;5231634;28;20438;-78
2022/07/10 04:10:14;;;;;;;8.93;2.47;;;;;;;13.91;75.25;102581.25;5249312;28;20041;-78
2022/07/10 04:12:45;;;;;;;6.50;2.47;;;;;;;13.77;75.94;102588.94;5248585;28;20104;-78
2022/07/10 04:15:17;;;;;;;8.70;2.50;;;;;;;13.93;75.33;102583.81;5248566;28;20040;-78
2022/07/10 04:17:48;;;;;;;7.87;2.03;;;;;;;14.02;75.44;102588.66;5248487;28;20056;-78
2022/07/10 04:20:20;;;;;;;7.60;1.97;;;;;;;13.87;76.79;102586.72;5231023;28;20040;-78
2022/07/10 04:22:51;;;;;;;9.37;2.37;;;;;;;14.03;75.34;102595.63;5249461;28;20041;-78
2022/07/10 04:25:23;;;;;;;8.53;2.67;;;;;;;14.10;74.91;102596.19;5247959;28;20036;-78
2022/07/10 04:27:54;;;;;;;8.13;2.10;;;;;;;14.05;74.92;102581.53;5237098;28;20055;-77
2022/07/10 04:30:25;;;;;;;11.07;2.90;;;;;;;14.05;74.84;102576.28;5248067;28;20041;-77
2022/07/10 04:32:57;;;;;;;9.87;2.50;;;;;;;14.08;75.00;102562.94;5231986;28;20021;-77
2022/07/10 04:35:28;;;;;;;8.13;3.00;;;;;;;13.83;77.30;102577.25;5240423;28;20048;-78
2022/07/10 04:37:59;;;;;;;6.73;2.40;;;;;;;14.11;75.25;102573.31;5252600;28;20029;-77
2022/07/10 04:40:31;;;;;;;8.33;2.23;;;;;;;14.20;74.65;102575.53;5252688;28;20040;-78
2022/07/10 04:43:02;;;;;;;4.80;1.63;;;;;;;14.05;76.01;102576.28;5234962;28;20029;-78
2022/07/10 04:45:33;;;;;;;9.73;2.60;;;;;;;14.09;75.34;102577.81;5252154;28;20040;-78
2022/07/10 04:48:05;;;;;;;8.60;2.17;;;;;;;14.19;75.27;102579.09;5252592;28;20082;-78
2022/07/10 04:50:36;;;;;;;10.07;2.20;;;;;;;14.24;74.39;102571.81;5253580;28;20033;-78
2022/07/10 04:53:08;;;;;;;10.00;3.10;;;;;;;14.24;74.53;102565.72;5239225;28;20120;-78
2022/07/10 04:55:39;;;;;;;8.93;2.73;;;;;;;14.25;74.62;102584.09;5251208;28;20579;-78
2022/07/10 04:58:10;;;;;;;8.30;2.40;;;;;;;14.34;74.57;102593.31;5234088;28;20033;-78
2022/07/10 05:00:42;;;;;;;8.03;2.43;;;;;;;14.22;74.67;102576.31;5252597;28;20040;-79
2022/07/10 05:03:15;;;;;;;10.43;2.57;;;;;;;14.44;74.04;102588.47;5252097;28;20078;-78
2022/07/10 05:05:46;;;;;;;8.57;2.23;;;;;;;14.47;73.99;102590.94;5252238;28;20029;-78
2022/07/10 05:08:18;;;;;;;8.40;2.37;;;;;;;14.35;74.22;102573.94;5253718;28;20029;-78
2022/07/10 05:10:49;;;;;;;7.37;2.10;;;;;;;14.28;75.84;102577.78;5253253;28;20403;-78
2022/07/10 05:13:21;;;;;;;6.27;2.53;;;;;;;14.34;75.25;102576.66;5252041;28;20059;-78
2022/07/10 05:15:52;;;;;;;9.93;2.90;;;;;;;14.57;74.53;102588.72;5253452;28;20029;-78
2022/07/10 05:18:23;;;;;;;10.57;2.53;;;;;;;14.58;74.34;102584.28;5236603;28;20027;-77
2022/07/10 05:20:54;;;;;;;7.63;2.33;;;;;;;14.61;74.75;102597.31;5253248;28;20029;-78
2022/07/10 05:23:26;;;;;;;8.47;2.00;;;;;;;14.55;75.88;102589.72;5256621;28;20063;-79
2022/07/10 05:25:57;;;;;;;5.33;2.00;;;;;;;14.58;75.67;102595.69;5248139;28;20377;-78
2022/07/10 05:28:28;;;;;;;5.87;2.03;;;;;;;14.63;74.67;102590.19;5231425;28;20036;-79
2022/07/10 05:30:59;;;;;;;9.60;2.67;;;;;;;14.62;74.92;102592.00;5251301;28;20351;-78
2022/07/10 05:33:32;;;;;;;9.33;2.53;;;;;;;14.60;75.35;102585.06;5233344;28;20027;-78
2022/07/10 05:36:04;;;;;;;12.13;2.43;;;;;;;14.61;75.44;102592.91;5234604;28;20025;-78
2022/07/10 05:38:35;;;;;;;8.70;2.40;;;;;;;14.60;75.46;102583.28;5252968;28;20020;-77
2022/07/10 05:41:07;;;;;;;10.23;2.30;;;;;;;14.68;75.42;102584.72;5255435;28;20490;-77
2022/07/10 05:43:38;;;;;;;8.37;1.77;;;;;;;14.47;77.61;102583.03;5249901;28;20028;-78
2022/07/10 05:46:09;;;;;;;5.63;1.83;;;;;;;14.66;76.12;102590.03;5250962;28;20701;-78
2022/07/10 05:48:40;;;;;;;5.23;1.63;;;;;;;14.63;76.64;102585.78;5251947;28;20057;-78
2022/07/10 05:51:12;;;;;;;15.27;2.67;;;;;;;14.71;76.94;102593.31;5251711;28;20029;-78
2022/07/10 05:53:43;;;;;;;7.97;2.03;;;;;;;14.69;77.08;102586.41;5250257;28;20061;-78
2022/07/10 05:56:14;;;;;;;9.53;2.43;;;;;;;14.58;79.04;102579.88;5254356;28;20017;-75
2022/07/10 05:58:45;;;;;;;5.50;1.60;;;;;;;14.67;79.15;102583.84;5251566;28;20039;-78
2022/07/10 06:01:17;;;;;;;6.97;1.77;;;;;;;14.83;77.94;102594.53;5250369;28;20147;-78
2022/07/10 06:03:48;;;;;;;7.23;1.97;;;;;;;14.71;79.33;102585.41;5234166;28;20551;-78
2022/07/10 06:06:19;;;;;;;8.20;1.53;;;;;;;14.88;78.21;102597.78;5251146;28;20036;-78
2022/07/10 06:08:51;;;;;;;5.83;1.70;;;;;;;14.90;79.04;102595.06;5233162;28;20033;-78
2022/07/10 06:11:23;;;;;;;5.60;1.80;;;;;;;14.93;78.13;102583.47;5250836;28;20170;-78
2022/07/10 06:13:54;;;;;;;6.33;1.67;;;;;;;14.97;77.18;102591.19;5249808;28;20040;-77
2022/07/10 06:16:25;;;;;;;6.63;1.70;;;;;;;14.93;77.54;102584.34;5251842;28;20029;-79
2022/07/10 06:18:56;;;;;;;9.23;2.10;;;;;;;15.07;76.62;102582.78;5250666;28;20043;-79
2022/07/10 06:21:28;;;;;;;8.63;1.77;;;;;;;15.11;77.33;102586.97;5251902;28;20028;-78
2022/07/10 06:23:59;;;;;;;7.77;2.03;;;;;;;15.10;75.71;102585.25;5250196;28;20029;-79
2022/07/10 06:26:30;;;;;;;7.63;1.80;;;;;;;15.17;75.07;102580.53;5247745;28;20032;-78
2022/07/10 06:29:02;;;;;;;9.83;2.00;;;;;;;15.16;75.83;102589.38;5249731;28;20033;-78
2022/07/10 06:31:33;;;;;;;9.00;1.83;;;;;;;15.19;76.61;102574.25;5250185;28;20033;-79
2022/07/10 06:34:04;;;;;;;9.73;3.30;;;;;;;15.39;76.07;102584.69;5234727;28;20434;-78
2022/07/10 06:36:36;;;;;;;8.37;1.87;;;;;;;15.63;75.05;102586.94;5250797;28;20025;-78
2022/07/10 06:39:07;;;;;;;7.57;1.70;;;;;;;15.69;74.74;102573.44;5250322;28;20086;-79
2022/07/10 06:41:39;;;;;;;6.43;2.00;;;;;;;15.81;73.20;102570.09;5249792;28;20028;-78
2022/07/10 06:44:10;;;;;;;10.17;2.00;;;;;;;15.93;72.11;102573.88;5231984;28;20025;-78
2022/07/10 06:46:42;;;;;;;10.40;1.93;;;;;;;16.00;73.08;102578.84;5251024;28;20438;-78
2022/07/10 06:49:14;;;;;;;12.13;2.77;;;;;;;15.99;70.72;102561.25;5250216;28;20430;-76
2022/07/10 06:51:45;;;;;;;6.90;1.90;;;;;;;16.18;70.74;102580.44;5249405;28;20127;-78
2022/07/10 06:54:16;;;;;;;10.00;1.93;;;;;;;16.32;70.14;102573.53;5249474;28;20033;-78
2022/07/10 06:56:47;;;;;;;6.63;1.57;;;;;;;16.46;69.90;102575.38;5249711;28;20486;-78
2022/07/10 06:59:19;;;;;;;8.27;1.93;;;;;;;16.65;68.38;102580.44;5249412;28;20024;-78
2022/07/10 07:01:50;;;;;;;6.83;1.53;;;;;;;16.86;67.83;102588.06;5247876;28;20060;-78
2022/07/10 07:04:22;;;;;;;9.00;2.67;;;;;;;17.06;66.23;102564.88;5247138;28;20102;-77
2022/07/10 07:06:53;;;;;;;4.43;1.50;;;;;;;17.20;66.99;102571.16;5242985;28;20051;-77
2022/07/10 07:09:24;;;;;;;7.17;1.90;;;;;;;17.50;66.01;102575.50;5245191;28;20018;-77
2022/07/10 07:11:55;;;;;;;9.20;2.00;;;;;;;17.54;65.45;102575.22;5251534;28;20053;-78
2022/07/10 07:14:27;;;;;;;8.17;1.70;;;;;;;17.77;64.70;102572.94;5248756;28;20033;-78
2022/07/10 07:17:03;;;;;;;10.10;2.27;;;;;;;17.99;63.60;102581.31;5251756;28;20048;-78
2022/07/10 07:25:32;;;;;;;5.57;1.57;;;;;;;18.46;62.38;102587.16;5245939;28;20037;-80
2022/07/10 07:28:03;;;;;;;15.40;3.53;;;;;;;18.57;61.19;102590.91;5248107;28;20487;-79
2022/07/10 07:30:35;;;;;;;10.53;1.93;;;;;;;18.84;60.72;102595.28;5231707;28;20089;-79
2022/07/10 07:33:06;;;;;;;8.73;1.70;;;;;;;18.89;61.44;102589.66;5239722;28;20422;-80
2022/07/10 07:35:38;;;;;;;11.00;2.63;;;;;;;18.77;62.40;102584.25;5242087;28;20487;-79
2022/07/10 07:38:09;;;;;;;11.07;1.73;;;;;;;18.62;61.86;102592.28;5244378;28;20025;-80
2022/07/10 07:40:41;;;;;;;7.90;2.30;;;;;;;18.74;61.61;102590.63;5240697;28;20075;-79
2022/07/10 07:43:12;;;;;;;11.60;1.70;;;;;;;18.55;61.84;102574.22;5239102;28;20034;-80
2022/07/10 07:45:43;;;;;;;10.23;2.33;;;;;;;18.61;61.08;102584.41;5238272;28;20045;-80
2022/07/10 07:48:14;;;;;;;7.67;2.07;;;;;;;18.52;61.17;102585.88;5243651;28;20541;-80
2022/07/10 07:50:46;;;;;;;7.50;2.17;;;;;;;18.60;60.75;102588.03;5231187;28;20514;-85
2022/07/10 07:53:17;;;;;;;10.57;2.53;;;;;;;18.74;60.35;102589.78;5236917;28;20537;-79
2022/07/10 07:55:48;;;;;;;8.63;2.10;;;;;;;18.86;60.71;102588.94;5250941;28;20076;-78
2022/07/10 07:58:20;;;;;;;9.57;2.20;;;;;;;19.05;61.55;102589.47;5247076;28;20025;-80
2022/07/10 08:00:51;;;;;;;7.47;2.10;;;;;;;18.94;60.81;102587.53;5232269;28;20102;-85
2022/07/10 08:03:22;;;;;;;10.03;3.00;;;;;;;19.10;61.13;102588.22;5246596;28;20041;-79
2022/07/10 08:05:54;;;;;;;11.43;3.17;;;;;;;18.99;59.69;102588.09;5236383;28;20978;-81
2022/07/10 08:08:25;;;;;;;5.77;2.10;;;;;;;18.92;60.42;102586.81;5250662;28;20033;-80
2022/07/10 08:10:56;;;;;;;11.03;2.50;;;;;;;18.95;60.19;102597.22;5248837;28;20037;-81
2022/07/10 08:13:28;;;;;;;7.00;2.67;;;;;;;18.78;60.34;102583.28;5253388;28;20582;-79
2022/07/10 08:16:00;;;;;;;9.20;2.77;;;;;;;18.84;59.80;102577.56;5250991;28;20043;-83
2022/07/10 08:18:31;;;;;;;10.87;3.00;;;;;;;18.99;60.04;102580.97;5254582;28;20021;-82
2022/07/10 08:21:03;;;;;;;13.03;4.47;;;;;;;19.28;59.90;102582.63;5249055;28;20029;-81
2022/07/10 08:23:34;;;;;;;7.73;2.33;;;;;;;19.52;58.92;102586.28;5250694;28;20037;-80
2022/07/10 08:26:06;;;;;;;12.20;4.20;;;;;;;19.62;57.92;102579.38;5249858;28;20048;-80
2022/07/10 08:28:37;;;;;;;7.73;2.20;;;;;;;19.76;58.45;102570.41;5249366;28;20017;-80
2022/07/10 08:31:08;;;;;;;11.90;2.93;;;;;;;19.92;57.08;102571.94;5243469;28;20024;-85
2022/07/10 08:33:39;;;;;;;12.33;2.53;;;;;;;20.20;57.56;102575.28;5241674;28;20079;-78
2022/07/10 08:36:11;;;;;;;10.43;2.57;;;;;;;20.36;57.50;102577.66;5231999;28;20028;-79
2022/07/10 08:38:42;;;;;;;7.47;1.90;;;;;;;20.15;56.93;102572.13;5242981;28;20013;-78
2022/07/10 08:41:14;;;;;;;9.93;2.60;;;;;;;20.13;56.90;102590.00;5228871;28;20033;-79
2022/07/10 08:43:46;;;;;;;7.70;2.30;;;;;;;19.95;57.11;102580.56;5227031;28;20061;-76
2022/07/10 08:46:18;;;;;;;6.60;2.13;;;;;;;19.89;56.30;102578.34;5248448;28;20129;-77
2022/07/10 08:48:53;;;;;;;7.30;2.50;;;;;;;19.75;57.11;102583.81;5238526;28;20053;-79
2022/07/10 08:51:35;;;;;;;8.93;2.63;;;;;;;19.68;57.77;102586.06;5222899;28;20501;-78
2022/07/10 08:54:08;;;;;;;9.73;2.43;;;;;;;19.39;58.90;102581.84;5237605;28;20040;-77
2022/07/10 08:56:40;;;;;;;8.73;2.23;;;;;;;19.43;58.13;102588.66;5238797;28;20032;-80
2022/07/10 08:59:13;;;;;;;7.23;2.40;;;;;;;19.27;58.54;102588.88;5236321;28;20399;-77
2022/07/10 09:01:45;;;;;;;8.95;2.60;;;;;;;19.27;58.58;102594.19;5221767;28;20518;-74
2022/07/10 09:04:21;;;;;;;5.17;1.80;;;;;;;19.12;60.06;102587.28;5238997;28;20087;-73
2022/07/10 09:06:53;;;;;;;8.03;2.97;;;;;;;19.19;59.75;102596.53;5219184;28;20032;-74
2022/07/10 09:09:25;;;;;;;7.30;2.20;;;;;;;19.12;60.17;102584.63;5219673;28;20020;-79
2022/07/10 09:11:57;;;;;;;6.23;2.37;;;;;;;19.23;60.95;102593.53;5237844;28;20672;-70
2022/07/10 09:14:28;;;;;;;10.30;2.57;;;;;;;19.01;60.95;102580.88;5236589;28;20547;-76
2022/07/10 09:17:01;;;;;;;7.00;2.73;;;;;;;19.00;60.69;102573.88;5246300;28;20033;-68
2022/07/10 09:19:32;;;;;;;6.37;1.97;;;;;;;19.09;60.22;102581.19;5231972;28;20063;-76
2022/07/10 09:22:09;;;;;;;7.73;2.57;;;;;;;19.28;60.06;102576.44;5243026;28;20036;-78
2022/07/10 09:24:45;;;;;;;8.57;2.30;;;;;;;19.25;59.96;102574.88;5241603;28;20021;-78
2022/07/10 09:27:16;;;;;;;10.00;2.80;;;;;;;19.36;59.19;102565.31;5239754;28;20120;-75
2022/07/10 09:29:54;;;;;;;12.63;2.37;;;;;;;19.38;60.52;102564.22;5246508;28;20136;-78
2022/07/10 09:32:26;;;;;;;6.60;1.93;;;;;;;19.40;61.07;102556.13;5244141;28;20025;-78
2022/07/10 09:37:48;;;;;;;7.20;1.90;;;;;;;19.65;58.91;102555.25;5247475;28;20053;-79
2022/07/10 09:40:19;;;;;;;9.17;1.90;;;;;;;19.66;58.91;102550.75;5247894;28;20571;-77
2022/07/10 09:42:53;;;;;;;12.10;2.03;;;;;;;19.42;59.87;102563.06;5236590;28;20157;-78
2022/07/10 09:45:25;;;;;;;;;;;;;;;19.92;58.85;102558.66;5231364;28;20041;-76
2022/07/10 09:48:02;;;;;;;5.30;2.17;;;;;;;19.84;58.75;102559.22;5227259;28;19932;-76
2022/07/10 09:50:34;;;;;;;5.57;1.50;;;;;;;19.64;58.63;102547.38;5229633;28;20098;-76
2022/07/10 09:53:09;;;;;;;4.37;2.13;;;;;;;19.64;59.75;102544.72;5225250;28;20039;-77
2022/07/10 09:55:44;;;;;;;7.70;1.90;;;;;;;19.70;58.85;102546.94;5228715;28;20091;-79
2022/07/10 09:58:16;;;;;;;;;;;;;;;20.13;58.28;102548.28;5228059;28;20751;-78
2022/07/10 10:00:48;;;;;;;4.37;1.50;;;;;;;19.76;59.36;102546.47;5220054;28;19917;-79
2022/07/10 10:03:20;;;;;;;7.83;2.23;;;;;;;19.95;58.01;102551.31;5224336;28;20055;-77
2022/07/10 10:06:10;;;;;;;7.17;2.23;;;;;;;20.14;57.90;102551.81;5224556;28;20037;-77
2022/07/10 10:09:24;;;;;;;6.83;1.80;;;;;;;20.31;57.70;102547.88;5203322;28;20055;-77
2022/07/10 10:12:07;;;;;;;5.63;1.73;;;;;;;20.13;57.31;102545.63;5219599;28;20095;-74
2022/07/10 10:14:39;;;;;;;8.73;1.93;;;;;;;20.06;57.14;102550.56;5213687;28;20038;-77
2022/07/10 10:17:13;;;;;;;6.40;1.83;;;;;;;20.26;58.29;102544.72;5214565;28;20033;-76
2022/07/10 10:22:38;;;;;;;4.70;2.23;;;;;;;20.80;56.84;102553.94;5216366;28;20041;-78
2022/07/10 10:25:10;;;;;;;7.07;2.50;;;;;;;20.78;56.29;102552.38;5201427;28;20096;-80
2022/07/10 10:27:42;;;;;;;7.03;2.13;;;;;;;20.82;55.21;102542.34;5212005;28;20311;-81
2022/07/10 10:30:13;;;;;;;7.88;2.28;;;;;;;20.83;56.27;102538.69;5201890;28;20049;-78
2022/07/10 10:32:45;;;;;;;3.22;1.88;;;;;;;20.67;55.60;102534.56;5206867;28;20025;-79
2022/07/10 10:35:46;;;;;;;5.20;1.88;;;;;;;20.83;56.03;102536.03;5202933;28;20060;-77
2022/07/10 10:38:18;;;;;;;7.57;1.80;;;;;;;20.67;56.41;102537.22;5200744;28;20716;-78
2022/07/10 10:40:49;;;;;;;4.10;1.92;;;;;;;20.75;55.89;102526.00;5226282;28;20064;-81
2022/07/10 10:43:23;;;;;;;4.03;1.90;;;;;;;20.99;55.06;102544.56;5217701;28;20076;-80
2022/07/10 10:45:54;;;;;;;5.13;2.20;;;;;;;21.02;55.93;102531.00;5216251;28;20030;-77
2022/07/10 10:48:25;;;;;;;4.70;2.00;;;;;;;21.12;55.46;102536.47;5220884;28;20351;-75
2022/07/10 10:50:57;;;;;;;6.63;2.05;;;;;;;21.19;54.60;102526.16;5229648;28;20481;-81
2022/07/10 10:53:31;;;;;;;6.10;1.65;;;;;;;21.25;55.40;102531.03;5223608;28;20035;-82
2022/07/10 10:56:02;;;;;;;;;;;;;;;21.72;54.25;102531.78;5211797;28;20196;-78
2022/07/10 10:58:39;;;;;;;8.40;1.42;;;;;;;21.49;54.12;102516.69;5208324;28;19929;-76
2022/07/10 11:01:28;;;;;;;5.15;1.40;;;;;;;21.69;54.19;102530.25;5210151;28;20046;-76
2022/07/10 11:04:09;;;;;;;4.82;2.00;;;;;;;21.63;53.89;102525.38;5209674;28;20044;-78
2022/07/10 11:06:52;;;;;;;4.78;1.33;;;;;;;21.59;54.79;102521.28;5226658;28;21608;-77
2022/07/10 11:09:28;;;;;;;5.28;1.83;;;;;;;21.68;53.66;102528.53;5212069;28;20041;-75
2022/07/10 11:12:09;;;;;;;5.40;1.48;;;;;;;21.56;55.27;102524.19;5207740;28;20762;-77
2022/07/10 11:14:52;;;;;;;4.50;1.52;;;;;;;21.62;54.46;102526.38;5211362;28;20548;-79
2022/07/10 11:17:28;;;;;;;4.93;1.48;;;;;;;21.74;53.60;102520.03;5207282;28;20528;-77
2022/07/10 11:20:01;;;;;;;6.38;1.40;;;;;;;21.67;53.90;102510.00;5210494;28;20447;-75
2022/07/10 11:23:05;;;;;;;4.17;1.50;;;;;;;21.87;53.45;102519.06;5212388;28;20838;-80
2022/07/10 11:25:45;;;;;;;2.05;0.88;;;;;;;21.80;54.07;102512.53;5213476;28;20046;-75
2022/07/10 11:28:21;;;;;;;6.40;1.45;;;;;;;21.72;54.10;102513.97;5216525;28;20541;-75
2022/07/10 11:30:54;;;;;;;2.22;1.13;;;;;;;21.73;54.25;102499.66;5224391;28;20712;-76
2022/07/10 11:33:26;;;;;;;4.65;1.50;;;;;;;21.69;53.48;102508.91;5226095;28;20672;-76
2022/07/10 11:35:58;;;;;;;7.78;1.58;;;;;;;21.88;53.28;102508.28;5219920;28;20388;-72
2022/07/10 11:38:31;;;;;;;3.20;1.38;;;;;;;21.90;53.72;102510.81;5225986;28;20029;-72
2022/07/10 11:41:02;;;;;;;5.80;1.40;;;;;;;21.73;52.67;102499.66;5227421;28;20040;-72
2022/07/10 11:43:33;;;;;;;8.02;1.58;;;;;;;22.01;52.43;102501.91;5225237;28;20041;-73
2022/07/10 11:46:07;;;;;;;3.30;1.33;;;;;;;22.07;52.45;102487.22;5227355;28;20040;-73
2022/07/10 11:48:42;;;;;;;5.32;1.70;;;;;;;22.16;52.27;102502.47;5229260;28;20104;-74
2022/07/10 11:51:39;;;;;;;5.68;1.88;;;;;;;22.47;53.12;102501.69;5225697;28;20032;-78
2022/07/10 11:54:18;;;;;;;3.20;1.08;;;;;;;22.34;51.42;102486.69;5216410;28;20076;-72
2022/07/10 11:56:53;;;;;;;9.65;1.50;;;;;;;22.35;51.52;102490.22;5216677;28;20602;-74
2022/07/10 11:59:26;;;;;;;3.15;1.20;;;;;;;22.29;52.76;102493.44;5226020;28;20101;-73
2022/07/10 12:01:57;;;;;;;2.58;0.98;;;;;;;22.34;52.36;102486.69;5227440;28;20088;-75
2022/07/10 12:04:31;;;;;;;3.20;0.80;;;;;;;22.43;51.04;102490.41;5226949;28;20021;-76
2022/07/10 12:07:02;;;;;;;7.30;1.98;;;;;;;22.57;51.39;102488.38;5221022;28;20021;-82